sensor_id;sensor_type;location;lat;lon;timestamp;P1;durP1;ratioP1;P2;durP2;ratioP2
76425;SDS011;65258;42.680;23.266;2022-11-15T21:19:47;36.80;;;29.73;;
76425;SDS011;65258;42.680;23.266;2022-11-15T21:22:13;36.90;;;32.30;;
76425;SDS011;65258;42.680;23.266;2022-11-15T21:24:39;34.00;;;30.10;;
76425;SDS011;65258;42.680;23.266;2022-11-15T21:28:15;73.10;;;56.93;;
76425;SDS011;65258;42.680;23.266;2022-11-15T21:30:41;78.50;;;60.17;;
76425;SDS011;65258;42.680;23.266;2022-11-15T21:33:19;77.63;;;56.22;;
76425;SDS011;65258;42.680;23.266;2022-11-15T21:35:45;75.35;;;51.97;;
76425;SDS011;65258;42.680;23.266;2022-11-15T21:38:11;77.07;;;49.88;;
76425;SDS011;65258;42.680;23.266;2022-11-15T21:40:37;74.00;;;51.22;;
76425;SDS011;65258;42.680;23.266;2022-11-15T21:43:02;79.68;;;52.10;;
76425;SDS011;65258;42.680;23.266;2022-11-15T21:45:28;82.63;;;48.60;;
76425;SDS011;65258;42.680;23.266;2022-11-15T21:47:53;80.00;;;46.40;;
76425;SDS011;65258;42.680;23.266;2022-11-15T21:50:19;84.53;;;48.72;;
76425;SDS011;65258;42.680;23.266;2022-11-15T21:52:44;88.05;;;47.88;;
76425;SDS011;65258;42.680;23.266;2022-11-15T21:55:11;80.47;;;46.33;;
76425;SDS011;65258;42.680;23.266;2022-11-15T21:57:36;79.60;;;46.00;;
76425;SDS011;65258;42.680;23.266;2022-11-15T22:00:02;80.93;;;44.55;;
76425;SDS011;65258;42.680;23.266;2022-11-15T22:02:47;84.30;;;44.80;;
76425;SDS011;65258;42.680;23.266;2022-11-15T22:05:12;80.25;;;44.50;;
76425;SDS011;65258;42.680;23.266;2022-11-15T22:07:38;98.10;;;52.25;;
76425;SDS011;65258;42.680;23.266;2022-11-15T22:10:03;90.00;;;46.78;;
76425;SDS011;65258;42.680;23.266;2022-11-15T22:12:29;90.60;;;46.10;;
76425;SDS011;65258;42.680;23.266;2022-11-15T22:14:55;91.07;;;47.45;;
76425;SDS011;65258;42.680;23.266;2022-11-15T22:17:21;86.38;;;45.35;;
76425;SDS011;65258;42.680;23.266;2022-11-15T22:19:48;76.65;;;45.60;;
76425;SDS011;65258;42.680;23.266;2022-11-15T22:22:14;83.18;;;43.53;;
76425;SDS011;65258;42.680;23.266;2022-11-15T22:24:39;90.30;;;44.60;;
76425;SDS011;65258;42.680;23.266;2022-11-15T22:27:05;87.25;;;43.05;;
76425;SDS011;65258;42.680;23.266;2022-11-15T22:29:30;78.78;;;41.50;;
76425;SDS011;65258;42.680;23.266;2022-11-15T22:31:56;82.97;;;42.42;;
76425;SDS011;65258;42.680;23.266;2022-11-15T22:34:21;86.85;;;43.17;;
76425;SDS011;65258;42.680;23.266;2022-11-15T22:36:47;84.50;;;43.53;;
76425;SDS011;65258;42.680;23.266;2022-11-15T22:39:13;83.90;;;44.72;;
76425;SDS011;65258;42.680;23.266;2022-11-15T22:41:38;87.30;;;44.47;;
76425;SDS011;65258;42.680;23.266;2022-11-15T22:44:04;83.70;;;45.03;;
76425;SDS011;65258;42.680;23.266;2022-11-15T22:46:29;88.00;;;44.95;;
76425;SDS011;65258;42.680;23.266;2022-11-15T22:48:55;78.25;;;41.22;;
76425;SDS011;65258;42.680;23.266;2022-11-15T22:51:20;78.53;;;43.53;;
76425;SDS011;65258;42.680;23.266;2022-11-15T22:53:46;87.75;;;46.10;;
76425;SDS011;65258;42.680;23.266;2022-11-15T22:56:11;87.38;;;46.15;;
76425;SDS011;65258;42.680;23.266;2022-11-15T22:58:38;85.18;;;46.80;;
76425;SDS011;65258;42.680;23.266;2022-11-15T23:01:04;85.25;;;44.40;;
76425;SDS011;65258;42.680;23.266;2022-11-15T23:03:30;92.60;;;45.90;;
76425;SDS011;65258;42.680;23.266;2022-11-15T23:06:03;96.75;;;47.33;;
76425;SDS011;65258;42.680;23.266;2022-11-15T23:08:30;98.82;;;52.42;;
76425;SDS011;65258;42.680;23.266;2022-11-15T23:10:58;100.78;;;48.97;;
76425;SDS011;65258;42.680;23.266;2022-11-15T23:13:43;95.40;;;47.97;;
76425;SDS011;65258;42.680;23.266;2022-11-15T23:16:09;93.93;;;51.67;;
76425;SDS011;65258;42.680;23.266;2022-11-15T23:18:55;108.38;;;54.42;;
76425;SDS011;65258;42.680;23.266;2022-11-15T23:21:23;107.28;;;50.45;;
76425;SDS011;65258;42.680;23.266;2022-11-15T23:24:11;93.75;;;47.13;;
76425;SDS011;65258;42.680;23.266;2022-11-15T23:26:38;97.80;;;49.28;;
76425;SDS011;65258;42.680;23.266;2022-11-15T23:29:05;100.72;;;50.53;;
76425;SDS011;65258;42.680;23.266;2022-11-15T23:31:32;111.03;;;54.38;;
76425;SDS011;65258;42.680;23.266;2022-11-15T23:34:16;86.22;;;43.30;;
76425;SDS011;65258;42.680;23.266;2022-11-15T23:36:41;100.90;;;51.90;;
76425;SDS011;65258;42.680;23.266;2022-11-15T23:39:07;91.70;;;46.80;;
76425;SDS011;65258;42.680;23.266;2022-11-15T23:41:34;94.95;;;44.17;;
76425;SDS011;65258;42.680;23.266;2022-11-15T23:43:59;101.10;;;49.70;;
76425;SDS011;65258;42.680;23.266;2022-11-15T23:46:25;118.38;;;55.92;;
76425;SDS011;65258;42.680;23.266;2022-11-15T23:48:51;108.07;;;56.05;;
76425;SDS011;65258;42.680;23.266;2022-11-15T23:51:16;85.47;;;44.15;;
76425;SDS011;65258;42.680;23.266;2022-11-15T23:53:42;93.68;;;47.60;;
76425;SDS011;65258;42.680;23.266;2022-11-15T23:56:09;85.57;;;43.03;;
76425;SDS011;65258;42.680;23.266;2022-11-15T23:58:36;90.22;;;46.85;;
